createdAt,value
2019-01-30T00:03:54.628Z,99846.73
2019-01-30T00:06:23.113Z,99842.91
2019-01-30T00:08:51.611Z,99845.25
2019-01-30T00:11:20.140Z,99839.11
2019-01-30T00:13:48.659Z,99833.51
2019-01-30T00:16:17.198Z,99840.02
2019-01-30T00:18:45.656Z,99837.88
2019-01-30T00:21:14.203Z,99833.10
2019-01-30T00:23:42.672Z,99837.39
2019-01-30T00:26:11.206Z,99835.25
2019-01-30T00:28:39.691Z,99839.06
2019-01-30T00:31:08.124Z,99835.38
2019-01-30T00:33:36.626Z,99832.89
2019-01-30T00:36:05.232Z,99834.68
2019-01-30T00:38:33.687Z,99834.49
2019-01-30T00:41:02.259Z,99831.04
2019-01-30T00:43:30.731Z,99832.34
2019-01-30T00:45:59.245Z,99834.02
2019-01-30T00:48:27.873Z,99823.77
2019-01-30T00:50:56.648Z,99818.17
2019-01-30T00:53:25.255Z,99816.16
2019-01-30T00:55:53.802Z,99820.45
2019-01-30T00:58:22.306Z,99819.00
2019-01-30T01:00:51.296Z,99817.63
2019-01-30T01:03:19.893Z,99821.58
2019-01-30T01:05:48.431Z,99815.63
2019-01-30T01:08:16.965Z,99816.59
2019-01-30T01:10:45.477Z,99818.03
2019-01-30T01:13:14.652Z,99815.89
2019-01-30T01:15:44.239Z,99817.42
2019-01-30T01:18:12.705Z,99816.66
2019-01-30T01:20:41.274Z,99812.29
2019-01-30T01:23:09.899Z,99819.02
2019-01-30T01:25:38.423Z,99815.69
2019-01-30T01:28:07.074Z,99809.20
2019-01-30T01:30:35.513Z,99816.43
2019-01-30T01:33:04.052Z,99816.72
2019-01-30T01:36:12.553Z,99811.73
2019-01-30T01:38:41.091Z,99808.44
2019-01-30T01:41:09.635Z,99812.29
2019-01-30T01:43:38.113Z,99805.38
2019-01-30T01:46:06.588Z,99808.55
2019-01-30T01:48:35.149Z,99807.38
2019-01-30T01:51:03.613Z,99796.05
2019-01-30T01:53:32.224Z,99797.99
2019-01-30T01:56:00.704Z,99791.69
2019-01-30T01:58:29.389Z,99791.83
2019-01-30T02:00:57.941Z,99788.11
2019-01-30T02:06:34.551Z,99780.23
2019-01-30T02:11:52.111Z,99781.90
2019-01-30T02:14:20.907Z,99778.15
2019-01-30T02:16:49.497Z,99774.44
2019-01-30T02:19:17.954Z,99776.36
2019-01-30T02:21:46.448Z,99773.73
2019-01-30T02:24:15.242Z,99769.80
2019-01-30T02:26:43.728Z,99769.03
2019-01-30T02:29:12.200Z,99764.48
2019-01-30T02:31:40.800Z,99762.83
2019-01-30T02:34:09.323Z,99759.38
2019-01-30T02:39:13.618Z,99753.99
2019-01-30T02:41:42.410Z,99756.75
2019-01-30T02:44:10.923Z,99753.99
2019-01-30T02:46:39.437Z,99748.17
2019-01-30T02:49:08.266Z,99752.89
2019-01-30T02:51:37.166Z,99758.48
2019-01-30T02:54:05.810Z,99756.47
2019-01-30T02:56:34.391Z,99751.92
2019-01-30T02:59:02.929Z,99755.86
2019-01-30T03:04:20.427Z,99749.65
2019-01-30T03:06:48.902Z,99744.72
2019-01-30T03:09:17.379Z,99742.92
2019-01-30T03:11:45.799Z,99744.72
2019-01-30T03:14:14.296Z,99743.76
2019-01-30T03:16:42.877Z,99745.36
2019-01-30T03:19:11.442Z,99746.94
2019-01-30T03:21:39.891Z,99750.66
2019-01-30T03:24:08.358Z,99747.06
2019-01-30T03:26:37.206Z,99746.39
2019-01-30T03:29:05.785Z,99752.44
2019-01-30T03:31:34.304Z,99740.58
2019-01-30T03:34:02.886Z,99741.00
2019-01-30T03:36:31.436Z,99736.91
2019-01-30T03:38:59.892Z,99733.96
2019-01-30T03:41:28.370Z,99726.70
2019-01-30T03:43:56.912Z,99731.66
2019-01-30T03:46:25.355Z,99732.01
2019-01-30T03:48:53.811Z,99729.52
2019-01-30T03:51:22.350Z,99726.61
2019-01-30T03:53:51.232Z,99729.52
2019-01-30T03:56:19.880Z,99726.30
2019-01-30T03:58:48.413Z,99729.17
2019-01-30T04:01:56.911Z,99730.01
2019-01-30T04:04:25.291Z,99730.48
2019-01-30T04:06:53.830Z,99736.19
2019-01-30T04:09:22.469Z,99734.27
2019-01-30T04:11:50.946Z,99725.70
2019-01-30T04:14:19.476Z,99728.67
2019-01-30T04:16:48.007Z,99721.16
2019-01-30T04:19:35.752Z,99730.81
2019-01-30T04:22:04.371Z,99719.01
2019-01-30T04:24:32.784Z,99719.97
2019-01-30T04:27:01.255Z,99714.59
2019-01-30T04:29:29.706Z,99714.86
2019-01-30T04:31:58.677Z,99708.50
2019-01-30T04:34:27.264Z,99699.67
2019-01-30T04:36:55.720Z,99700.85
2019-01-30T04:39:24.249Z,99695.73
2019-01-30T04:41:52.693Z,99691.45
2019-01-30T04:44:21.209Z,99703.54
2019-01-30T04:46:49.985Z,99698.30
2019-01-30T04:49:18.536Z,99689.47
2019-01-30T04:51:47.017Z,99698.84
2019-01-30T04:54:15.600Z,99695.06
2019-01-30T04:56:44.090Z,99693.88
2019-01-30T04:59:12.641Z,99688.16
2019-01-30T05:01:49.456Z,99692.70
2019-01-30T05:04:11.352Z,99695.33
2019-01-30T05:06:39.853Z,99691.65
2019-01-30T05:09:48.295Z,99686.41
2019-01-30T05:12:17.203Z,99687.20
2019-01-30T05:14:45.588Z,99682.95
2019-01-30T05:17:14.132Z,99676.81
2019-01-30T05:19:42.620Z,99682.95
2019-01-30T05:22:11.543Z,99679.38
2019-01-30T05:24:40.447Z,99680.75
2019-01-30T05:27:08.932Z,99679.78
2019-01-30T05:29:37.375Z,99674.20
2019-01-30T05:32:06.011Z,99680.05
2019-01-30T05:34:34.532Z,99676.20
2019-01-30T05:37:03.354Z,99677.77
2019-01-30T05:39:31.902Z,99677.91
2019-01-30T05:42:00.469Z,99671.22
2019-01-30T05:44:29.045Z,99681.16
2019-01-30T05:46:57.504Z,99676.81
2019-01-30T05:49:25.966Z,99670.52
2019-01-30T05:51:54.562Z,99674.61
2019-01-30T05:54:23.364Z,99678.73
2019-01-30T05:56:51.987Z,99683.78
2019-01-30T05:59:20.522Z,99683.63
2019-01-30T06:01:49.311Z,99686.25
2019-01-30T06:04:17.810Z,99690.53
2019-01-30T06:06:46.316Z,99687.43
2019-01-30T06:09:14.827Z,99686.25
2019-01-30T06:11:43.460Z,99698.69
2019-01-30T06:14:12.030Z,99697.73
2019-01-30T06:16:40.598Z,99701.66
2019-01-30T06:19:09.130Z,99696.09
2019-01-30T06:21:37.691Z,99696.32
2019-01-30T06:24:06.235Z,99700.60
2019-01-30T06:26:34.789Z,99702.17
2019-01-30T06:29:03.358Z,99698.52
2019-01-30T06:31:31.750Z,99701.40
2019-01-30T06:34:00.505Z,99700.57
2019-01-30T06:36:29.049Z,99697.12
2019-01-30T06:38:57.563Z,99700.92
2019-01-30T06:41:26.150Z,99697.47
2019-01-30T06:43:54.795Z,99700.57
2019-01-30T06:46:23.740Z,99699.48
2019-01-30T06:48:52.622Z,99696.92
2019-01-30T06:51:21.099Z,99694.30
2019-01-30T06:53:49.608Z,99700.38
2019-01-30T06:56:18.231Z,99697.63
2019-01-30T06:58:46.814Z,99693.34
2019-01-30T07:01:15.341Z,99692.73
2019-01-30T07:03:43.742Z,99688.80
2019-01-30T07:06:12.253Z,99685.58
2019-01-30T07:08:40.696Z,99675.98
2019-01-30T07:11:10.674Z,99682.54
2019-01-30T07:13:39.546Z,99675.16
2019-01-30T07:16:07.987Z,99675.38
2019-01-30T07:18:36.445Z,99678.83
2019-01-30T07:21:05.351Z,99681.86
2019-01-30T07:23:34.139Z,99675.23
2019-01-30T07:26:02.624Z,99678.91
2019-01-30T07:28:31.135Z,99676.51
2019-01-30T07:30:59.636Z,99680.22
2019-01-30T07:33:28.087Z,99678.97
2019-01-30T07:35:56.650Z,99670.97
2019-01-30T07:38:25.462Z,99672.02
2019-01-30T07:40:53.953Z,99676.02
2019-01-30T07:43:23.002Z,99671.73
2019-01-30T07:45:52.635Z,99671.69
2019-01-30T07:48:21.184Z,99674.84
2019-01-30T07:50:49.697Z,99670.91
2019-01-30T07:53:18.204Z,99676.86
2019-01-30T07:55:46.694Z,99680.50
2019-01-30T07:58:15.154Z,99679.63
2019-01-30T08:00:43.743Z,99671.19
2019-01-30T08:03:12.341Z,99677.48
2019-01-30T08:05:40.844Z,99686.86
2019-01-30T08:08:09.324Z,99680.22
2019-01-30T08:10:37.905Z,99680.65
2019-01-30T08:13:06.768Z,99678.86
2019-01-30T08:15:35.371Z,99685.60
2019-01-30T08:18:03.895Z,99681.05
2019-01-30T08:20:32.526Z,99672.20
2019-01-30T08:23:01.013Z,99671.51
2019-01-30T08:25:29.630Z,99674.13
2019-01-30T08:27:58.705Z,99677.58
2019-01-30T08:31:07.376Z,99671.33
2019-01-30T08:33:35.841Z,99669.54
2019-01-30T08:36:04.675Z,99668.65
2019-01-30T08:38:33.426Z,99663.88
2019-01-30T08:41:01.872Z,99659.64
2019-01-30T08:43:30.521Z,99667.73
2019-01-30T08:45:59.026Z,99669.44
2019-01-30T08:48:30.095Z,99672.06
2019-01-30T08:50:57.926Z,99666.30
2019-01-30T08:53:26.760Z,99662.36
2019-01-30T08:55:55.268Z,99664.99
2019-01-30T08:58:23.876Z,99670.98
2019-01-30T09:00:52.457Z,99673.33
2019-01-30T09:03:21.254Z,99675.89
2019-01-30T09:05:49.835Z,99681.48
2019-01-30T09:08:18.286Z,99674.58
2019-01-30T09:10:46.897Z,99676.45
2019-01-30T09:13:15.472Z,99675.80
2019-01-30T09:15:43.998Z,99678.28
2019-01-30T09:18:12.458Z,99676.08
2019-01-30T09:20:40.942Z,99674.77
2019-01-30T09:23:09.545Z,99669.30
2019-01-30T09:25:37.985Z,99670.58
2019-01-30T09:28:06.513Z,99678.23
2019-01-30T09:31:14.919Z,99678.61
2019-01-30T09:33:43.375Z,99680.86
2019-01-30T09:36:11.860Z,99680.06
2019-01-30T09:38:40.416Z,99678.57
2019-01-30T09:41:09.024Z,99676.33
2019-01-30T09:43:37.533Z,99673.59
2019-01-30T09:46:06.045Z,99673.08
2019-01-30T09:48:37.015Z,99671.17
2019-01-30T09:51:04.918Z,99668.72
2019-01-30T09:53:33.453Z,99671.99
2019-01-30T09:56:02.183Z,99667.45
2019-01-30T09:58:30.605Z,99662.20
2019-01-30T10:00:59.260Z,99661.60
2019-01-30T10:03:47.308Z,99671.49
2019-01-30T10:06:15.851Z,99656.34
2019-01-30T10:08:44.486Z,99656.23
2019-01-30T10:11:12.935Z,99649.77
2019-01-30T10:13:41.541Z,99649.48
2019-01-30T10:16:09.992Z,99649.83
2019-01-30T10:18:38.520Z,99655.97
2019-01-30T10:21:07.068Z,99650.69
2019-01-30T10:23:35.566Z,99643.83
2019-01-30T10:26:04.098Z,99641.25
2019-01-30T10:28:32.589Z,99642.52
2019-01-30T10:31:01.430Z,99645.71
2019-01-30T10:33:29.893Z,99634.53
2019-01-30T10:35:58.420Z,99631.90
2019-01-30T10:38:26.986Z,99627.34
2019-01-30T10:40:55.524Z,99625.55
2019-01-30T10:43:23.959Z,99618.31
2019-01-30T10:45:52.355Z,99619.31
2019-01-30T10:48:20.888Z,99615.83
2019-01-30T10:50:49.357Z,99618.95
2019-01-30T10:53:17.885Z,99610.05
2019-01-30T10:55:46.446Z,99609.12
2019-01-30T10:58:54.863Z,99606.86
2019-01-30T11:01:23.422Z,99601.31
2019-01-30T11:03:57.400Z,99603.95
2019-01-30T11:06:22.649Z,99613.57
2019-01-30T11:08:51.039Z,99615.98
2019-01-30T11:11:19.552Z,99611.69
2019-01-30T11:13:48.071Z,99605.39
2019-01-30T11:16:16.686Z,99610.08
2019-01-30T11:18:45.299Z,99613.70
2019-01-30T11:21:13.855Z,99609.75
2019-01-30T11:23:42.330Z,99602.34
2019-01-30T11:26:11.060Z,99594.64
2019-01-30T11:28:39.669Z,99600.94
2019-01-30T11:31:08.178Z,99586.16
2019-01-30T11:33:36.862Z,99593.12
2019-01-30T11:36:05.390Z,99583.75
2019-01-30T11:38:34.020Z,99585.76
2019-01-30T11:41:02.746Z,99578.83
2019-01-30T11:43:31.385Z,99583.98
2019-01-30T11:45:59.900Z,99569.98
2019-01-30T11:48:28.475Z,99564.56
2019-01-30T11:50:57.088Z,99567.91
2019-01-30T11:53:25.784Z,99551.08
2019-01-30T11:55:54.309Z,99552.25
2019-01-30T11:58:22.762Z,99543.30
2019-01-30T12:01:10.490Z,99545.41
2019-01-30T12:03:39.016Z,99542.39
2019-01-30T12:06:07.970Z,99536.86
2019-01-30T12:08:36.561Z,99533.09
2019-01-30T12:11:05.154Z,99538.55
2019-01-30T12:13:33.709Z,99531.95
2019-01-30T12:16:02.250Z,99522.79
2019-01-30T12:18:30.811Z,99520.46
2019-01-30T12:20:59.313Z,99520.44
2019-01-30T12:23:27.764Z,99526.87
2019-01-30T12:25:56.252Z,99518.00
2019-01-30T12:28:24.810Z,99523.77
2019-01-30T12:30:53.364Z,99526.58
2019-01-30T12:33:21.992Z,99517.20
2019-01-30T12:35:50.537Z,99520.66
2019-01-30T12:38:19.084Z,99519.52
2019-01-30T12:43:36.670Z,99508.28
2019-01-30T12:46:05.359Z,99501.08
2019-01-30T12:48:33.876Z,99500.75
2019-01-30T12:51:02.504Z,99497.78
2019-01-30T12:53:31.134Z,99499.09
2019-01-30T12:55:59.707Z,99497.44
2019-01-30T12:58:28.306Z,99494.16
2019-01-30T13:00:56.794Z,99495.16
2019-01-30T13:03:25.409Z,99493.50
2019-01-30T13:05:53.966Z,99500.44
2019-01-30T13:08:22.569Z,99487.06
2019-01-30T13:10:51.123Z,99481.63
2019-01-30T13:13:19.733Z,99483.30
2019-01-30T13:15:48.264Z,99480.13
2019-01-30T13:18:18.650Z,99473.22
2019-01-30T13:20:47.222Z,99479.81
2019-01-30T13:23:15.693Z,99471.08
2019-01-30T13:25:44.408Z,99465.81
2019-01-30T13:28:12.887Z,99473.39
2019-01-30T13:30:43.581Z,99474.70
2019-01-30T13:33:51.759Z,99470.76
2019-01-30T13:36:20.309Z,99474.36
2019-01-30T13:38:48.923Z,99466.13
2019-01-30T13:41:17.383Z,99464.66
2019-01-30T13:43:45.854Z,99469.09
2019-01-30T13:46:14.408Z,99457.57
2019-01-30T13:48:43.351Z,99461.51
2019-01-30T13:51:11.891Z,99457.53
2019-01-30T13:53:40.431Z,99451.94
2019-01-30T13:56:09.112Z,99454.57
2019-01-30T13:58:37.722Z,99453.10
2019-01-30T14:01:16.987Z,99452.12
2019-01-30T14:03:36.591Z,99452.91
2019-01-30T14:06:05.256Z,99450.30
2019-01-30T14:08:33.721Z,99450.28
2019-01-30T14:11:02.170Z,99449.30
2019-01-30T14:13:30.799Z,99449.63
2019-01-30T14:15:59.257Z,99438.61
2019-01-30T14:18:27.854Z,99441.38
2019-01-30T14:20:56.375Z,99442.69
2019-01-30T14:23:39.163Z,99438.76
2019-01-30T14:25:55.190Z,99436.10
2019-01-30T14:28:23.726Z,99438.76
2019-01-30T14:30:52.174Z,99433.16
2019-01-30T14:33:20.660Z,99432.64
2019-01-30T14:35:49.973Z,99422.93
2019-01-30T14:38:18.364Z,99416.33
2019-01-30T14:40:46.896Z,99422.25
2019-01-30T14:43:15.321Z,99423.89
2019-01-30T14:45:44.113Z,99434.59
2019-01-30T14:48:12.825Z,99420.25
2019-01-30T14:50:41.324Z,99430.45
2019-01-30T14:53:09.826Z,99434.08
2019-01-30T14:56:37.376Z,99430.77
2019-01-30T14:58:53.146Z,99433.71
2019-01-30T15:01:21.838Z,99427.47
2019-01-30T15:03:50.321Z,99431.91
2019-01-30T15:06:39.089Z,99426.27
2019-01-30T15:09:27.211Z,99435.30
2019-01-30T15:12:15.101Z,99440.23
2019-01-30T15:15:44.229Z,99433.31
2019-01-30T15:18:34.393Z,99431.84
2019-01-30T15:21:40.745Z,99431.33
2019-01-30T15:23:57.049Z,99429.70
2019-01-30T15:26:45.464Z,99435.61
2019-01-30T15:29:32.474Z,99433.62
2019-01-30T15:34:32.419Z,99440.20
2019-01-30T15:37:01.133Z,99438.16
2019-01-30T15:39:29.926Z,99433.91
2019-01-30T15:41:58.511Z,99437.34
2019-01-30T15:44:27.159Z,99439.44
2019-01-30T15:46:56.067Z,99439.10
2019-01-30T15:49:24.555Z,99434.52
2019-01-30T15:51:53.554Z,99438.77
2019-01-30T15:54:43.393Z,99440.90
2019-01-30T15:57:12.650Z,99440.02
2019-01-30T16:02:31.452Z,99445.29
2019-01-30T16:05:00.270Z,99453.17
2019-01-30T16:07:28.966Z,99453.47
2019-01-30T16:09:57.564Z,99454.78
2019-01-30T16:12:26.073Z,99457.72
2019-01-30T16:14:54.738Z,99448.34
2019-01-30T16:17:23.366Z,99449.17
2019-01-30T16:20:12.388Z,99454.39
2019-01-30T16:23:21.056Z,99447.31
2019-01-30T16:25:49.738Z,99451.56
2019-01-30T16:28:18.723Z,99453.70
2019-01-30T16:30:47.509Z,99451.37
2019-01-30T16:33:39.626Z,99454.66
2019-01-30T16:36:08.898Z,99461.40
2019-01-30T16:38:38.071Z,99464.16
2019-01-30T16:41:06.853Z,99459.94
2019-01-30T16:43:35.582Z,99456.31
2019-01-30T16:52:20.126Z,99455.23
2019-01-30T16:54:48.938Z,99457.87
2019-01-30T16:57:17.540Z,99455.88
2019-01-30T16:59:45.995Z,99458.84
2019-01-30T17:02:14.733Z,99458.55
2019-01-30T17:04:43.260Z,99450.32
2019-01-30T17:07:11.804Z,99446.02
2019-01-30T17:09:40.377Z,99459.33
2019-01-30T17:12:09.094Z,99456.21
2019-01-30T17:24:57.318Z,99463.67
2019-01-30T17:27:26.195Z,99460.22
2019-01-30T17:29:55.121Z,99458.71
2019-01-30T17:32:23.624Z,99452.53
2019-01-30T17:34:52.187Z,99458.63
2019-01-30T17:37:20.715Z,99454.17
2019-01-30T17:39:49.526Z,99460.13
2019-01-30T17:42:18.104Z,99461.61
2019-01-30T17:44:46.720Z,99466.48
2019-01-30T17:47:15.269Z,99467.45
2019-01-30T17:49:43.897Z,99468.31
2019-01-30T17:52:12.437Z,99472.47
2019-01-30T17:54:41.414Z,99472.73
2019-01-30T17:57:11.647Z,99467.82
2019-01-30T17:59:40.128Z,99457.30
2019-01-30T18:04:59.286Z,99461.11
2019-01-30T18:07:28.037Z,99465.19
2019-01-30T18:09:56.548Z,99466.87
2019-01-30T18:12:25.400Z,99470.09
2019-01-30T18:14:53.901Z,99465.53
2019-01-30T18:17:22.785Z,99467.87
2019-01-30T18:19:51.564Z,99459.64
2019-01-30T18:22:20.243Z,99466.29
2019-01-30T18:24:49.284Z,99449.91
2019-01-30T18:27:19.039Z,99458.50
2019-01-30T18:29:47.505Z,99456.67
2019-01-30T18:32:16.043Z,99455.80
2019-01-30T18:34:44.591Z,99454.67
2019-01-30T18:37:13.174Z,99451.85
2019-01-30T18:39:41.790Z,99451.70
2019-01-30T18:42:10.488Z,99454.97
2019-01-30T18:44:39.017Z,99454.27
2019-01-30T18:47:07.478Z,99460.83
2019-01-30T18:49:36.011Z,99462.98
2019-01-30T18:52:04.551Z,99467.27
2019-01-30T18:54:33.060Z,99464.15
2019-01-30T18:57:01.698Z,99462.55
2019-01-30T18:59:30.251Z,99459.17
2019-01-30T19:01:58.818Z,99457.84
2019-01-30T19:04:27.296Z,99456.30
2019-01-30T19:06:55.897Z,99459.77
2019-01-30T19:09:24.428Z,99458.30
2019-01-30T19:11:52.872Z,99457.48
2019-01-30T19:14:21.358Z,99457.40
2019-01-30T19:16:49.868Z,99458.66
2019-01-30T19:19:18.344Z,99458.38
2019-01-30T19:21:47.106Z,99464.88
2019-01-30T19:24:15.587Z,99457.17
2019-01-30T19:26:44.207Z,99456.86
2019-01-30T19:29:12.807Z,99456.69
2019-01-30T19:31:41.363Z,99462.03
2019-01-30T19:34:09.905Z,99462.03
2019-01-30T19:36:38.590Z,99454.63
2019-01-30T19:39:47.003Z,99457.09
2019-01-30T19:42:15.605Z,99455.86
2019-01-30T19:44:44.179Z,99451.63
2019-01-30T19:47:12.817Z,99456.20
2019-01-30T19:49:41.685Z,99442.64
2019-01-30T19:52:17.031Z,99446.44
2019-01-30T19:54:45.646Z,99447.01
2019-01-30T19:57:14.294Z,99451.41
2019-01-30T19:59:42.797Z,99454.03
2019-01-30T20:02:11.464Z,99449.95
2019-01-30T20:04:39.921Z,99448.16
2019-01-30T20:07:14.729Z,99451.44
2019-01-30T20:09:38.813Z,99444.09
2019-01-30T20:12:07.498Z,99442.07
2019-01-30T20:14:36.024Z,99441.10
2019-01-30T20:17:04.620Z,99445.70
2019-01-30T20:19:33.187Z,99447.98
2019-01-30T20:22:01.676Z,99451.75
2019-01-30T20:24:30.261Z,99455.29
2019-01-30T20:26:58.815Z,99452.58
2019-01-30T20:29:28.393Z,99453.41
2019-01-30T20:31:56.880Z,99451.41
2019-01-30T20:34:25.425Z,99447.61
2019-01-30T20:36:54.014Z,99455.80
2019-01-30T20:39:22.453Z,99462.38
2019-01-30T20:41:51.026Z,99451.89
2019-01-30T20:44:19.934Z,99453.46
2019-01-30T20:46:48.848Z,99452.86
2019-01-30T20:49:17.688Z,99456.11
2019-01-30T20:51:46.936Z,99453.18
2019-01-30T20:54:15.562Z,99456.09
2019-01-30T20:56:44.186Z,99457.14
2019-01-30T20:59:12.678Z,99457.54
2019-01-30T21:01:41.496Z,99452.98
2019-01-30T21:04:09.917Z,99448.34
2019-01-30T21:06:59.423Z,99463.69
2019-01-30T21:09:28.262Z,99458.72
2019-01-30T21:11:56.772Z,99457.30
2019-01-30T21:14:25.420Z,99452.43
2019-01-30T21:16:53.980Z,99453.37
2019-01-30T21:19:22.415Z,99447.74
2019-01-30T21:21:50.992Z,99452.99
2019-01-30T21:24:19.388Z,99461.36
2019-01-30T21:26:47.820Z,99468.86
2019-01-30T21:29:16.367Z,99462.95
2019-01-30T21:31:44.840Z,99459.02
2019-01-30T21:34:13.493Z,99460.15
2019-01-30T21:36:41.959Z,99462.78
2019-01-30T21:39:10.501Z,99462.95
2019-01-30T21:41:39.122Z,99465.82
2019-01-30T21:44:07.647Z,99460.91
2019-01-30T21:46:36.160Z,99461.26
2019-01-30T21:49:04.731Z,99459.80
2019-01-30T21:51:33.235Z,99464.71
2019-01-30T21:54:01.714Z,99463.68
2019-01-30T21:56:30.280Z,99461.77
2019-01-30T21:58:58.733Z,99453.27
2019-01-30T22:01:27.313Z,99451.93
2019-01-30T22:03:55.767Z,99450.62
2019-01-30T22:06:24.303Z,99447.34
2019-01-30T22:08:52.871Z,99450.27
2019-01-30T22:11:21.395Z,99445.98
2019-01-30T22:13:49.870Z,99443.51
2019-01-30T22:16:18.424Z,99441.02
2019-01-30T22:18:46.907Z,99447.79
2019-01-30T22:21:15.427Z,99448.61
2019-01-30T22:23:43.986Z,99450.69
2019-01-30T22:26:12.512Z,99448.89
2019-01-30T22:28:41.419Z,99451.10
2019-01-30T22:31:09.913Z,99448.03
2019-01-30T22:33:38.463Z,99449.48
2019-01-30T22:36:06.953Z,99453.28
2019-01-30T22:38:35.401Z,99448.31
2019-01-30T22:41:03.964Z,99444.92
2019-01-30T22:43:32.477Z,99445.17
2019-01-30T22:46:01.038Z,99445.20
2019-01-30T22:48:29.492Z,99445.27
2019-01-30T22:50:57.973Z,99452.80
2019-01-30T22:56:15.550Z,99447.52
2019-01-30T22:58:44.061Z,99449.11
2019-01-30T23:01:52.617Z,99452.11
2019-01-30T23:05:01.383Z,99450.63
2019-01-30T23:08:09.908Z,99447.83
2019-01-30T23:11:18.431Z,99446.20
2019-01-30T23:14:26.929Z,99451.59
2019-01-30T23:17:35.412Z,99448.28
2019-01-30T23:20:43.867Z,99455.60
2019-01-30T23:23:52.327Z,99452.36
2019-01-30T23:27:00.783Z,99450.22
2019-01-30T23:30:09.244Z,99451.48
2019-01-30T23:33:17.698Z,99449.00
2019-01-30T23:36:24.889Z,99436.33
2019-01-30T23:39:33.316Z,99449.73
2019-01-30T23:42:40.797Z,99452.80
2019-01-30T23:45:47.999Z,99459.53
2019-01-30T23:48:55.079Z,99448.07
2019-01-30T23:52:02.349Z,99442.30
2019-01-30T23:55:10.793Z,99451.28
2019-01-30T23:58:17.953Z,99452.94
